createdAt,value
2019-03-25T00:00:54.013Z,93.40
2019-03-25T00:03:24.287Z,87.40
2019-03-25T00:05:54.606Z,95.40
2019-03-25T00:08:24.893Z,87.80
2019-03-25T00:10:55.319Z,91.00
2019-03-25T00:13:25.783Z,85.40
2019-03-25T00:15:56.633Z,92.40
2019-03-25T00:18:27.040Z,90.40
2019-03-25T00:20:57.307Z,93.00
2019-03-25T00:23:27.564Z,96.00
2019-03-25T00:25:57.794Z,96.00
2019-03-25T00:28:28.146Z,95.40
2019-03-25T00:30:58.497Z,82.60
2019-03-25T00:33:28.742Z,92.40
2019-03-25T00:35:59.399Z,88.80
2019-03-25T00:38:30.981Z,91.00
2019-03-25T00:41:01.660Z,97.80
2019-03-25T00:43:32.268Z,85.00
2019-03-25T00:46:02.737Z,99.80
2019-03-25T00:48:33.122Z,97.20
2019-03-25T00:51:03.935Z,102.00
2019-03-25T00:53:34.523Z,87.00
2019-03-25T00:56:04.920Z,96.00
2019-03-25T00:58:35.466Z,89.60
2019-03-25T01:01:06.086Z,94.80
2019-03-25T01:03:36.723Z,90.40
2019-03-25T01:06:07.269Z,97.40
2019-03-25T01:08:37.624Z,88.80
2019-03-25T01:11:08.042Z,89.20
2019-03-25T01:13:39.694Z,96.00
2019-03-25T01:16:09.878Z,77.20
2019-03-25T01:18:40.293Z,94.20
2019-03-25T01:21:11.070Z,97.60
2019-03-25T01:23:41.725Z,86.80
2019-03-25T01:26:12.277Z,86.20
2019-03-25T01:28:43.082Z,92.40
2019-03-25T01:31:13.579Z,85.40
2019-03-25T01:33:43.878Z,97.60
2019-03-25T01:36:14.126Z,96.20
2019-03-25T01:38:44.467Z,93.40
2019-03-25T01:41:14.781Z,87.80
2019-03-25T01:43:44.962Z,81.40
2019-03-25T01:46:15.367Z,90.20
2019-03-25T01:48:45.592Z,94.00
2019-03-25T01:51:16.142Z,85.60
2019-03-25T01:53:46.867Z,88.20
2019-03-25T01:56:17.163Z,86.00
2019-03-25T01:58:47.621Z,94.40
2019-03-25T02:01:17.854Z,94.60
2019-03-25T02:03:48.619Z,100.00
2019-03-25T02:06:18.902Z,95.60
2019-03-25T02:08:49.291Z,93.40
2019-03-25T02:11:22.125Z,96.00
2019-03-25T02:13:51.876Z,88.60
2019-03-25T02:16:22.137Z,94.20
2019-03-25T02:18:52.469Z,96.60
2019-03-25T02:21:22.784Z,93.40
2019-03-25T02:23:53.085Z,94.60
2019-03-25T02:26:23.423Z,94.60
2019-03-25T02:28:53.838Z,93.80
2019-03-25T02:31:24.358Z,96.60
2019-03-25T02:33:55.295Z,94.40
2019-03-25T02:36:25.639Z,99.20
2019-03-25T02:38:56.237Z,92.60
2019-03-25T02:41:26.691Z,94.80
2019-03-25T02:43:57.324Z,86.80
2019-03-25T02:46:27.528Z,87.20
2019-03-25T02:48:57.961Z,82.00
2019-03-25T02:51:29.230Z,84.40
2019-03-25T02:53:59.742Z,85.60
2019-03-25T02:56:30.045Z,86.60
2019-03-25T02:59:00.636Z,82.80
2019-03-25T03:01:30.985Z,90.20
2019-03-25T03:04:01.804Z,80.80
2019-03-25T03:06:32.319Z,88.60
2019-03-25T03:09:02.853Z,77.20
2019-03-25T03:11:33.216Z,84.80
2019-03-25T03:14:03.867Z,80.40
2019-03-25T03:16:35.245Z,84.20
2019-03-25T03:19:07.256Z,84.40
2019-03-25T03:21:37.607Z,89.60
2019-03-25T03:24:08.141Z,86.40
2019-03-25T03:26:38.774Z,87.00
2019-03-25T03:29:09.190Z,84.00
2019-03-25T03:31:39.528Z,91.80
2019-03-25T03:34:09.856Z,87.40
2019-03-25T03:36:40.300Z,96.40
2019-03-25T03:39:10.587Z,89.20
2019-03-25T03:41:41.093Z,82.60
2019-03-25T03:44:11.935Z,91.80
2019-03-25T03:46:43.670Z,78.60
2019-03-25T03:49:14.899Z,75.60
2019-03-25T03:51:45.223Z,89.80
2019-03-25T03:54:16.531Z,89.00
2019-03-25T03:56:47.151Z,82.80
2019-03-25T03:59:17.519Z,78.40
2019-03-25T04:01:48.049Z,86.80
2019-03-25T04:04:18.523Z,83.60
2019-03-25T04:06:48.761Z,84.60
2019-03-25T04:09:19.425Z,83.20
2019-03-25T04:11:49.727Z,76.20
2019-03-25T04:14:20.277Z,85.20
2019-03-25T04:16:51.085Z,83.00
2019-03-25T04:19:21.491Z,90.00
2019-03-25T04:21:51.854Z,91.40
2019-03-25T04:24:22.732Z,89.40
2019-03-25T04:26:53.266Z,86.60
2019-03-25T04:29:24.086Z,80.60
2019-03-25T04:31:54.595Z,84.00
2019-03-25T04:34:25.048Z,93.40
2019-03-25T04:36:55.366Z,85.20
2019-03-25T04:39:25.956Z,78.20
2019-03-25T04:41:56.356Z,85.00
2019-03-25T04:44:26.824Z,79.00
2019-03-25T04:46:57.127Z,82.80
2019-03-25T04:49:27.577Z,79.80
2019-03-25T04:51:58.254Z,82.60
2019-03-25T04:54:29.447Z,80.20
2019-03-25T04:56:59.975Z,70.60
2019-03-25T04:59:30.248Z,80.60
2019-03-25T05:02:00.478Z,56.40
2019-03-25T05:04:30.764Z,66.40
2019-03-25T05:07:01.451Z,68.40
2019-03-25T05:09:31.963Z,67.20
2019-03-25T05:12:02.649Z,72.20
2019-03-25T05:14:33.051Z,78.40
2019-03-25T05:17:03.650Z,72.60
2019-03-25T05:19:34.330Z,63.60
2019-03-25T05:22:05.009Z,64.20
2019-03-25T05:24:36.141Z,67.20
2019-03-25T05:27:07.022Z,70.40
2019-03-25T05:29:37.320Z,73.40
2019-03-25T05:32:07.847Z,66.80
2019-03-25T05:34:38.446Z,70.60
2019-03-25T05:37:08.975Z,69.00
2019-03-25T05:39:39.237Z,58.60
2019-03-25T05:42:09.832Z,55.80
2019-03-25T05:44:40.354Z,59.40
2019-03-25T05:47:10.687Z,55.80
2019-03-25T05:49:41.123Z,56.80
2019-03-25T05:52:11.775Z,52.20
2019-03-25T05:54:42.653Z,53.60
2019-03-25T05:57:13.047Z,49.60
2019-03-25T05:59:43.520Z,50.00
2019-03-25T06:02:13.834Z,52.00
2019-03-25T06:04:44.382Z,52.60
2019-03-25T06:07:14.881Z,53.80
2019-03-25T06:09:45.274Z,54.60
2019-03-25T06:12:15.543Z,55.60
2019-03-25T06:14:46.949Z,54.40
2019-03-25T06:17:17.687Z,51.40
2019-03-25T06:19:47.988Z,46.60
2019-03-25T06:22:18.256Z,46.40
2019-03-25T06:24:48.614Z,48.60
2019-03-25T06:27:19.114Z,49.40
2019-03-25T06:29:49.522Z,46.20
2019-03-25T06:32:19.947Z,45.60
2019-03-25T06:34:50.252Z,46.80
2019-03-25T06:37:20.643Z,45.80
2019-03-25T06:39:50.891Z,41.20
2019-03-25T06:42:21.393Z,36.00
2019-03-25T06:44:52.010Z,42.20
2019-03-25T06:47:24.351Z,41.80
2019-03-25T06:49:54.991Z,41.00
2019-03-25T06:52:25.444Z,41.60
2019-03-25T06:54:55.796Z,40.00
2019-03-25T06:57:26.544Z,37.40
2019-03-25T06:59:57.125Z,36.60
2019-03-25T07:02:27.944Z,40.60
2019-03-25T07:04:58.225Z,34.00
2019-03-25T07:07:28.758Z,38.00
2019-03-25T07:09:59.312Z,39.00
2019-03-25T07:12:29.922Z,38.60
2019-03-25T07:15:00.751Z,37.00
2019-03-25T07:17:31.175Z,38.80
2019-03-25T07:20:01.773Z,38.80
2019-03-25T07:22:32.188Z,39.40
2019-03-25T07:25:02.530Z,35.80
2019-03-25T07:27:36.999Z,37.00
2019-03-25T07:30:05.715Z,36.40
2019-03-25T07:32:37.959Z,34.40
2019-03-25T07:35:08.769Z,38.60
2019-03-25T07:37:39.477Z,37.40
2019-03-25T07:40:11.637Z,33.60
2019-03-25T07:42:43.157Z,37.00
2019-03-25T07:45:14.221Z,35.80
2019-03-25T07:47:44.660Z,32.60
2019-03-25T07:50:15.239Z,34.80
2019-03-25T07:52:45.559Z,32.40
2019-03-25T07:55:16.248Z,35.00
2019-03-25T07:57:48.622Z,38.80
2019-03-25T08:00:19.368Z,38.80
2019-03-25T08:02:50.113Z,37.20
2019-03-25T08:05:20.722Z,35.60
2019-03-25T08:07:51.658Z,31.20
2019-03-25T08:10:35.387Z,38.00
2019-03-25T08:13:05.915Z,37.20
2019-03-25T08:15:37.363Z,39.20
2019-03-25T08:18:08.891Z,39.40
2019-03-25T08:20:39.364Z,34.80
2019-03-25T08:23:09.998Z,36.40
2019-03-25T08:25:40.390Z,36.60
2019-03-25T08:28:10.910Z,34.00
2019-03-25T08:30:41.083Z,37.00
2019-03-25T08:33:11.538Z,35.00
2019-03-25T08:35:41.854Z,36.00
2019-03-25T08:38:12.413Z,34.40
2019-03-25T08:40:42.837Z,33.20
2019-03-25T08:43:13.447Z,36.60
2019-03-25T08:45:44.256Z,35.40
2019-03-25T08:48:14.790Z,34.00
2019-03-25T08:50:45.370Z,32.60
2019-03-25T08:53:16.227Z,37.40
2019-03-25T08:55:46.504Z,32.80
2019-03-25T08:58:16.977Z,35.80
2019-03-25T09:00:47.364Z,34.00
2019-03-25T09:03:18.014Z,33.40
2019-03-25T09:05:48.693Z,35.80
2019-03-25T09:08:19.140Z,36.00
2019-03-25T09:10:49.477Z,36.80
2019-03-25T09:13:19.916Z,38.60
2019-03-25T09:15:51.034Z,36.00
2019-03-25T09:18:21.412Z,38.40
2019-03-25T09:20:52.003Z,34.40
2019-03-25T09:23:22.850Z,36.00
2019-03-25T09:25:53.706Z,37.00
2019-03-25T09:28:24.749Z,38.80
2019-03-25T09:31:23.156Z,40.20
2019-03-25T09:33:53.711Z,38.00
2019-03-25T09:36:24.195Z,36.00
2019-03-25T09:38:55.106Z,36.00
2019-03-25T09:41:25.800Z,40.20
2019-03-25T09:43:55.962Z,38.40
2019-03-25T09:46:27.105Z,40.00
2019-03-25T09:48:57.658Z,36.20
2019-03-25T09:51:28.055Z,40.00
2019-03-25T09:53:58.459Z,39.60
2019-03-25T09:56:28.794Z,36.00
2019-03-25T09:58:59.285Z,38.00
2019-03-25T10:01:30.193Z,35.00
2019-03-25T10:04:00.486Z,34.80
2019-03-25T10:06:30.948Z,36.00
2019-03-25T10:09:01.504Z,38.20
2019-03-25T10:11:37.175Z,38.20
2019-03-25T10:14:08.068Z,40.40
2019-03-25T10:16:39.199Z,41.40
2019-03-25T10:19:10.360Z,42.00
2019-03-25T10:21:41.234Z,39.40
2019-03-25T10:24:11.605Z,38.60
2019-03-25T10:26:42.323Z,39.00
2019-03-25T10:29:12.887Z,39.20
2019-03-25T10:31:43.426Z,39.00
2019-03-25T10:34:14.998Z,41.20
2019-03-25T10:36:45.670Z,39.00
2019-03-25T10:39:17.085Z,38.40
2019-03-25T10:41:47.698Z,38.20
2019-03-25T10:44:17.870Z,38.40
2019-03-25T10:46:48.520Z,37.60
2019-03-25T10:49:19.012Z,40.20
2019-03-25T10:51:50.178Z,41.00
2019-03-25T10:54:20.808Z,40.00
2019-03-25T10:56:51.384Z,36.20
2019-03-25T10:59:21.663Z,41.00
2019-03-25T11:01:52.284Z,34.80
2019-03-25T11:04:23.535Z,36.20
2019-03-25T11:06:54.199Z,40.00
2019-03-25T11:09:24.864Z,39.40
2019-03-25T11:11:55.713Z,37.40
2019-03-25T11:14:26.103Z,38.60
2019-03-25T11:16:56.578Z,38.40
2019-03-25T11:19:27.132Z,39.80
2019-03-25T11:21:58.801Z,39.20
2019-03-25T11:24:29.093Z,39.20
2019-03-25T11:26:59.630Z,40.00
2019-03-25T11:29:30.120Z,39.80
2019-03-25T11:32:00.668Z,41.40
2019-03-25T11:34:31.344Z,39.00
2019-03-25T11:37:02.565Z,36.40
2019-03-25T11:39:32.952Z,39.00
2019-03-25T11:42:03.589Z,39.20
2019-03-25T11:44:34.359Z,39.80
2019-03-25T11:47:04.871Z,40.80
2019-03-25T11:49:35.856Z,37.60
2019-03-25T11:52:14.102Z,39.40
2019-03-25T11:54:44.612Z,36.60
2019-03-25T11:57:15.073Z,41.40
2019-03-25T11:59:45.404Z,42.00
2019-03-25T12:02:17.700Z,37.40
2019-03-25T12:04:47.696Z,42.00
2019-03-25T12:07:18.537Z,41.60
2019-03-25T12:09:48.896Z,37.80
2019-03-25T12:12:19.348Z,42.00
2019-03-25T12:14:50.858Z,40.00
2019-03-25T12:17:21.291Z,41.80
2019-03-25T12:19:51.715Z,44.00
2019-03-25T12:22:22.120Z,44.60
2019-03-25T12:24:52.849Z,47.40
2019-03-25T12:27:23.437Z,44.40
2019-03-25T12:29:53.974Z,48.00
2019-03-25T12:32:24.158Z,47.40
2019-03-25T12:34:54.479Z,45.00
2019-03-25T12:37:28.798Z,43.40
2019-03-25T12:39:59.334Z,47.00
2019-03-25T12:42:29.508Z,45.00
2019-03-25T12:44:59.772Z,49.60
2019-03-25T12:47:29.933Z,50.60
2019-03-25T12:50:00.439Z,65.00
2019-03-25T12:52:30.809Z,72.00
2019-03-25T12:55:01.422Z,75.40
2019-03-25T12:57:31.777Z,75.60
2019-03-25T13:00:01.988Z,64.20
2019-03-25T13:02:32.373Z,55.00
2019-03-25T13:05:02.614Z,53.80
2019-03-25T13:07:33.501Z,55.80
2019-03-25T13:10:03.703Z,53.60
2019-03-25T13:12:34.048Z,51.60
2019-03-25T13:15:04.763Z,58.20
2019-03-25T13:17:35.598Z,55.80
2019-03-25T13:20:06.181Z,53.00
2019-03-25T13:22:36.850Z,53.00
2019-03-25T13:25:07.233Z,52.20
2019-03-25T13:27:38.520Z,53.00
2019-03-25T13:30:09.078Z,49.20
2019-03-25T13:32:39.217Z,52.00
2019-03-25T13:35:09.539Z,49.00
2019-03-25T13:37:40.586Z,51.20
2019-03-25T13:40:11.047Z,48.60
2019-03-25T13:42:41.535Z,51.00
2019-03-25T13:45:12.215Z,54.20
2019-03-25T13:47:42.742Z,53.80
2019-03-25T13:50:13.061Z,59.40
2019-03-25T13:52:43.590Z,52.80
2019-03-25T13:55:13.969Z,54.00
2019-03-25T13:57:44.398Z,54.40
2019-03-25T14:00:14.891Z,57.20
2019-03-25T14:02:45.477Z,61.40
2019-03-25T14:05:15.741Z,61.80
2019-03-25T14:07:46.664Z,65.60
2019-03-25T14:10:17.186Z,71.40
2019-03-25T14:12:47.586Z,65.40
2019-03-25T14:15:17.728Z,67.00
2019-03-25T14:17:48.635Z,74.80
2019-03-25T14:20:19.101Z,73.80
2019-03-25T14:22:50.015Z,82.60
2019-03-25T14:25:20.211Z,73.40
2019-03-25T14:27:50.685Z,78.60
2019-03-25T14:30:21.096Z,62.80
2019-03-25T14:32:51.422Z,76.20
2019-03-25T14:35:21.728Z,75.20
2019-03-25T14:37:53.146Z,77.00
2019-03-25T14:40:25.492Z,63.80
2019-03-25T14:42:55.653Z,76.80
2019-03-25T14:45:26.700Z,80.40
2019-03-25T14:47:57.362Z,76.20
2019-03-25T14:50:28.215Z,79.00
2019-03-25T14:52:58.744Z,69.40
2019-03-25T14:55:29.080Z,75.40
2019-03-25T14:57:59.298Z,72.80
2019-03-25T15:00:29.563Z,64.80
2019-03-25T15:02:59.978Z,64.80
2019-03-25T15:05:30.286Z,62.40
2019-03-25T15:08:01.155Z,69.00
2019-03-25T15:10:31.650Z,78.60
2019-03-25T15:13:01.831Z,77.60
2019-03-25T15:15:32.413Z,77.40
2019-03-25T15:18:03.330Z,76.40
2019-03-25T15:20:34.470Z,78.20
2019-03-25T15:23:04.686Z,85.80
2019-03-25T15:25:35.032Z,81.80
2019-03-25T15:28:05.336Z,86.00
2019-03-25T15:30:36.473Z,85.60
2019-03-25T15:33:06.980Z,83.60
2019-03-25T15:35:37.288Z,94.00
2019-03-25T15:38:07.490Z,93.00
2019-03-25T15:40:37.997Z,87.40
2019-03-25T15:43:08.462Z,94.80
2019-03-25T15:45:38.688Z,87.60
2019-03-25T15:48:09.256Z,95.80
2019-03-25T15:50:39.731Z,96.00
2019-03-25T15:53:10.329Z,90.40
2019-03-25T15:55:41.126Z,92.80
2019-03-25T15:58:11.357Z,88.00
2019-03-25T16:00:47.506Z,85.00
2019-03-25T16:03:14.081Z,90.20
2019-03-25T16:05:44.437Z,80.60
2019-03-25T16:08:14.879Z,80.00
2019-03-25T16:10:45.249Z,76.00
2019-03-25T16:13:15.751Z,76.00
2019-03-25T16:15:46.164Z,71.80
2019-03-25T16:18:35.604Z,75.60
2019-03-25T16:21:05.866Z,71.60
2019-03-25T16:23:36.213Z,71.80
2019-03-25T16:26:06.539Z,70.80
2019-03-25T16:28:36.674Z,73.00
2019-03-25T16:31:08.421Z,73.40
2019-03-25T16:33:38.803Z,69.80
2019-03-25T16:36:09.138Z,69.80
2019-03-25T16:38:39.479Z,69.40
2019-03-25T16:41:10.145Z,66.00
2019-03-25T16:43:40.303Z,64.80
2019-03-25T16:46:10.674Z,64.80
2019-03-25T16:48:41.043Z,64.60
2019-03-25T16:51:11.376Z,63.20
2019-03-25T16:53:42.337Z,65.80
2019-03-25T16:56:12.890Z,66.60
2019-03-25T16:58:43.421Z,57.40
2019-03-25T17:01:14.313Z,63.60
2019-03-25T17:03:44.710Z,65.80
2019-03-25T17:06:15.067Z,62.40
2019-03-25T17:08:45.741Z,64.00
2019-03-25T17:11:16.074Z,64.60
2019-03-25T17:13:46.257Z,64.80
2019-03-25T17:16:16.999Z,53.60
2019-03-25T17:18:47.828Z,61.80
2019-03-25T17:21:18.637Z,58.20
2019-03-25T17:23:49.190Z,60.40
2019-03-25T17:26:19.796Z,61.80
2019-03-25T17:28:50.151Z,57.00
2019-03-25T17:31:21.333Z,54.40
2019-03-25T17:33:51.680Z,56.20
2019-03-25T17:36:22.154Z,57.00
2019-03-25T17:38:52.951Z,57.00
2019-03-25T17:41:23.805Z,56.00
2019-03-25T17:43:54.381Z,56.00
2019-03-25T17:46:25.102Z,57.80
2019-03-25T17:48:55.915Z,59.20
2019-03-25T17:51:26.769Z,57.20
2019-03-25T17:53:58.037Z,57.60
2019-03-25T17:56:28.784Z,57.00
2019-03-25T17:58:59.873Z,55.60
2019-03-25T18:01:35.870Z,58.40
2019-03-25T18:04:06.414Z,57.80
2019-03-25T18:06:37.925Z,55.80
2019-03-25T18:09:11.068Z,55.60
2019-03-25T18:11:41.311Z,57.00
2019-03-25T18:14:11.942Z,56.20
2019-03-25T18:16:42.203Z,52.60
2019-03-25T18:19:12.693Z,57.00
2019-03-25T18:21:43.046Z,52.20
2019-03-25T18:24:13.662Z,55.20
2019-03-25T18:26:44.030Z,57.20
2019-03-25T18:29:16.907Z,56.60
2019-03-25T18:31:46.295Z,57.40
2019-03-25T18:34:16.870Z,55.80
2019-03-25T18:36:47.361Z,54.00
2019-03-25T18:39:17.597Z,56.60
2019-03-25T18:41:48.056Z,55.40
2019-03-25T18:44:18.646Z,56.60
2019-03-25T18:46:49.233Z,57.80
2019-03-25T18:49:19.757Z,53.40
2019-03-25T18:51:50.123Z,53.00
2019-03-25T18:54:20.487Z,55.40
2019-03-25T18:56:50.942Z,56.80
2019-03-25T18:59:21.507Z,54.20
2019-03-25T19:01:54.724Z,54.60
2019-03-25T19:04:27.147Z,53.80
2019-03-25T19:06:56.593Z,51.00
2019-03-25T19:09:27.102Z,53.40
2019-03-25T19:11:57.626Z,53.80
2019-03-25T19:14:32.180Z,55.60
2019-03-25T19:17:05.175Z,54.20
2019-03-25T19:19:34.711Z,53.20
2019-03-25T19:22:05.545Z,54.60
2019-03-25T19:24:36.133Z,55.60
2019-03-25T19:27:06.623Z,54.40
2019-03-25T19:29:37.050Z,54.60
2019-03-25T19:32:07.338Z,52.40
2019-03-25T19:34:37.808Z,56.20
2019-03-25T19:37:08.127Z,57.60
2019-03-25T19:39:38.269Z,56.00
2019-03-25T19:42:09.549Z,58.40
2019-03-25T19:44:39.766Z,55.80
2019-03-25T19:47:10.388Z,57.40
2019-03-25T19:49:40.761Z,56.00
2019-03-25T19:52:10.971Z,55.00
2019-03-25T19:54:41.556Z,55.20
2019-03-25T19:57:12.905Z,55.60
2019-03-25T19:59:43.242Z,53.80
2019-03-25T20:02:19.073Z,55.20
2019-03-25T20:04:46.082Z,56.00
2019-03-25T20:07:16.515Z,57.40
2019-03-25T20:09:47.139Z,57.00
2019-03-25T20:12:17.516Z,58.00
2019-03-25T20:14:48.177Z,58.40
2019-03-25T20:17:19.010Z,57.00
2019-03-25T20:19:49.665Z,57.00
2019-03-25T20:22:20.166Z,60.60
2019-03-25T20:24:50.692Z,58.40
2019-03-25T20:27:21.237Z,58.00
2019-03-25T20:29:51.518Z,57.20
2019-03-25T20:32:31.206Z,58.40
2019-03-25T20:34:54.984Z,54.60
2019-03-25T20:37:25.453Z,58.40
2019-03-25T20:39:55.851Z,62.00
2019-03-25T20:42:26.327Z,55.40
2019-03-25T20:44:57.082Z,57.20
2019-03-25T20:47:27.617Z,56.20
2019-03-25T20:49:58.153Z,56.80
2019-03-25T20:52:28.934Z,55.40
2019-03-25T20:54:59.602Z,56.40
2019-03-25T20:57:30.190Z,56.00
2019-03-25T21:00:00.503Z,59.00
2019-03-25T21:02:30.917Z,54.80
2019-03-25T21:05:01.240Z,52.60
2019-03-25T21:07:32.715Z,56.60
2019-03-25T21:10:03.523Z,54.40
2019-03-25T21:12:38.423Z,54.20
2019-03-25T21:15:08.216Z,50.00
2019-03-25T21:17:38.877Z,54.00
2019-03-25T21:20:10.472Z,54.20
2019-03-25T21:22:41.392Z,52.80
2019-03-25T21:25:12.155Z,54.80
2019-03-25T21:27:42.601Z,55.40
2019-03-25T21:30:13.189Z,55.60
2019-03-25T21:32:43.616Z,50.20
2019-03-25T21:35:14.175Z,53.00
2019-03-25T21:37:44.733Z,55.00
2019-03-25T21:40:15.448Z,58.20
2019-03-25T21:42:46.006Z,59.00
2019-03-25T21:45:16.475Z,59.60
2019-03-25T21:47:47.052Z,59.20
2019-03-25T21:50:17.562Z,59.00
2019-03-25T21:52:48.108Z,57.20
2019-03-25T21:55:18.847Z,61.00
2019-03-25T21:57:49.322Z,62.80
2019-03-25T22:00:19.899Z,56.80
2019-03-25T22:02:50.181Z,60.60
2019-03-25T22:05:20.901Z,63.40
2019-03-25T22:07:51.238Z,73.60
2019-03-25T22:10:22.028Z,67.60
2019-03-25T22:12:52.503Z,65.80
2019-03-25T22:15:23.285Z,68.00
2019-03-25T22:17:54.140Z,67.80
2019-03-25T22:20:24.546Z,67.60
2019-03-25T22:22:54.814Z,67.60
2019-03-25T22:25:25.419Z,77.60
2019-03-25T22:27:55.529Z,75.00
2019-03-25T22:30:26.364Z,69.00
2019-03-25T22:32:56.709Z,75.20
2019-03-25T22:35:27.012Z,70.00
2019-03-25T22:37:57.380Z,75.00
2019-03-25T22:40:28.113Z,76.80
2019-03-25T22:42:58.359Z,73.80
2019-03-25T22:45:29.568Z,74.80
2019-03-25T22:48:00.058Z,69.80
2019-03-25T22:50:31.379Z,67.00
2019-03-25T22:53:01.868Z,77.40
2019-03-25T22:55:32.491Z,81.00
2019-03-25T22:58:02.909Z,76.60
2019-03-25T23:00:41.199Z,75.60
2019-03-25T23:03:12.086Z,72.00
2019-03-25T23:05:42.619Z,71.80
2019-03-25T23:08:13.258Z,73.20
2019-03-25T23:10:43.993Z,76.00
2019-03-25T23:13:14.610Z,68.40
2019-03-25T23:15:45.558Z,74.80
2019-03-25T23:18:15.920Z,70.80
2019-03-25T23:20:46.536Z,72.80
2019-03-25T23:23:16.840Z,76.40
2019-03-25T23:25:47.691Z,71.60
2019-03-25T23:28:18.006Z,64.60
2019-03-25T23:30:48.746Z,72.40
2019-03-25T23:33:19.078Z,68.40
2019-03-25T23:35:49.872Z,69.20
2019-03-25T23:38:20.303Z,67.80
2019-03-25T23:40:51.789Z,74.20
2019-03-25T23:43:22.371Z,71.40
2019-03-25T23:45:53.028Z,77.80
2019-03-25T23:48:23.639Z,66.40
2019-03-25T23:50:55.101Z,76.20
2019-03-25T23:53:25.812Z,71.00
2019-03-25T23:55:56.095Z,71.40
2019-03-25T23:58:26.456Z,65.20
